Time;durP1;ratioP1;P1;durP2;ratioP2;P2;SDS_P1;SDS_P2;PMS_P1;PMS_P2;Temp;Humidity;BMP_temperature;BMP_pressure;BME280_temperature;BME280_humidity;BME280_pressure;Samples;Min_cycle;Max_cycle;Signal;HPM_P1;HPM_P2
2020/12/17 00:00:45;;;;;;;9.88;8.25;;;;;;;8.64;92.95;99440.75;5031522;28;20274;-67
2020/12/17 00:03:12;;;;;;;11.68;9.52;;;;;;;8.61;92.85;99445.41;5031837;28;20205;-68
2020/12/17 00:05:39;;;;;;;10.27;8.57;;;;;;;8.56;93.00;99441.13;5035118;28;20201;-68
2020/12/17 00:08:05;;;;;;;10.43;8.45;;;;;;;8.52;93.27;99450.31;5035016;28;20237;-68
2020/12/17 00:10:31;;;;;;;11.50;8.90;;;;;;;8.50;93.12;99451.31;5034878;28;20206;-68
2020/12/17 00:12:57;;;;;;;9.90;8.38;;;;;;;8.43;93.53;99450.78;5034260;28;20277;-68
2020/12/17 00:15:23;;;;;;;10.40;9.35;;;;;;;8.46;93.67;99449.78;5035028;28;20233;-67
2020/12/17 00:17:51;;;;;;;10.20;8.65;;;;;;;8.42;93.51;99441.00;5034430;28;20206;-67
2020/12/17 00:20:20;;;;;;;9.20;8.02;;;;;;;8.44;93.50;99438.25;5034679;28;20644;-67
2020/12/17 00:22:47;;;;;;;11.75;8.13;;;;;;;8.46;93.52;99436.34;5034707;28;20289;-67
2020/12/17 00:25:17;;;;;;;10.77;7.55;;;;;;;8.50;93.65;99436.13;5034339;28;20182;-67
2020/12/17 00:27:45;;;;;;;10.43;8.60;;;;;;;8.44;93.34;99436.44;5034083;28;20281;-68
2020/12/17 00:30:13;;;;;;;9.88;8.88;;;;;;;8.44;93.32;99440.94;5034202;28;20644;-68
2020/12/17 00:32:40;;;;;;;10.55;8.02;;;;;;;8.34;93.51;99437.81;5033974;28;20281;-68
2020/12/17 00:35:08;;;;;;;9.10;8.05;;;;;;;8.28;94.06;99436.31;5034395;28;20278;-68
2020/12/17 00:37:35;;;;;;;10.02;8.10;;;;;;;8.37;94.10;99451.06;5034369;28;20291;-66
2020/12/17 00:40:05;;;;;;;12.15;8.18;;;;;;;8.42;93.70;99449.06;5034454;28;20562;-68
2020/12/17 00:42:31;;;;;;;9.52;8.00;;;;;;;8.54;93.46;99442.16;5035013;28;20201;-68
2020/12/17 00:44:57;;;;;;;10.05;7.70;;;;;;;8.55;92.50;99447.47;5034262;28;20296;-67
2020/12/17 00:47:28;;;;;;;8.80;7.95;;;;;;;8.35;92.39;99450.28;5034435;28;20273;-68
2020/12/17 00:49:54;;;;;;;11.45;9.00;;;;;;;8.29;92.85;99440.72;5034441;28;20293;-67
2020/12/17 00:52:22;;;;;;;8.63;6.93;;;;;;;8.21;92.72;99442.06;5033217;28;20289;-67
2020/12/17 00:54:48;;;;;;;10.07;7.40;;;;;;;8.15;93.14;99446.78;5033489;28;20256;-68
2020/12/17 00:57:16;;;;;;;8.32;6.82;;;;;;;8.26;92.99;99448.06;5034140;28;20702;-67
2020/12/17 00:59:42;;;;;;;8.70;6.78;;;;;;;8.13;93.31;99448.69;5033738;28;20237;-68
2020/12/17 01:02:08;;;;;;;10.85;7.25;;;;;;;8.10;93.52;99448.84;5034055;28;20305;-68
2020/12/17 01:04:34;;;;;;;8.30;6.70;;;;;;;8.24;93.82;99450.81;5033615;28;20249;-67
2020/12/17 01:07:01;;;;;;;10.63;7.28;;;;;;;8.46;92.97;99445.28;5033325;28;20236;-67
2020/12/17 01:09:27;;;;;;;8.52;6.72;;;;;;;8.51;92.31;99445.88;5033864;28;20210;-68
2020/12/17 01:11:53;;;;;;;7.05;6.35;;;;;;;8.60;91.70;99443.69;5033574;28;20182;-67
2020/12/17 01:14:21;;;;;;;8.20;6.80;;;;;;;8.69;91.17;99456.63;5033371;28;20237;-68
2020/12/17 01:16:47;;;;;;;8.70;7.38;;;;;;;8.69;90.54;99459.31;5033723;28;20245;-68
2020/12/17 01:19:14;;;;;;;8.13;6.45;;;;;;;8.85;89.48;99457.53;5033607;28;20720;-68
2020/12/17 01:21:40;;;;;;;8.60;6.88;;;;;;;8.76;89.68;99458.03;5033570;28;20617;-67
2020/12/17 01:24:07;;;;;;;8.75;6.07;;;;;;;8.76;89.96;99458.88;5033407;28;20200;-66
2020/12/17 01:26:33;;;;;;;8.50;5.75;;;;;;;8.88;89.42;99467.25;5033069;28;20709;-67
2020/12/17 01:28:59;;;;;;;7.50;6.50;;;;;;;8.77;89.42;99463.31;5033286;28;20265;-67
2020/12/17 01:31:27;;;;;;;7.40;6.10;;;;;;;8.82;89.45;99460.41;5033029;28;20209;-68
2020/12/17 01:33:53;;;;;;;8.32;6.32;;;;;;;8.78;89.23;99461.50;5033028;28;20209;-67
2020/12/17 01:36:19;;;;;;;7.70;6.35;;;;;;;8.76;89.51;99466.94;5032785;28;20205;-68
2020/12/17 01:38:46;;;;;;;6.53;5.88;;;;;;;8.83;89.33;99474.69;5032941;28;20233;-68
2020/12/17 01:41:14;;;;;;;8.20;6.55;;;;;;;8.80;89.29;99473.03;5032664;28;20202;-67
2020/12/17 01:43:42;;;;;;;7.05;5.90;;;;;;;8.82;89.22;99471.13;5032685;28;20258;-67
2020/12/17 01:46:09;;;;;;;7.13;5.90;;;;;;;8.82;89.43;99465.75;5032838;28;20190;-68
2020/12/17 01:48:36;;;;;;;6.97;6.20;;;;;;;8.73;89.56;99467.09;5032696;28;20231;-68
2020/12/17 01:51:04;;;;;;;8.02;6.57;;;;;;;8.68;89.88;99473.66;5032734;28;20213;-68
2020/12/17 01:53:36;;;;;;;7.90;7.10;;;;;;;8.67;90.10;99477.31;5032802;28;20232;-67
2020/12/17 01:56:03;;;;;;;9.07;6.95;;;;;;;8.58;90.36;99470.59;5032077;28;20202;-67
2020/12/17 01:58:41;;;;;;;7.85;6.88;;;;;;;8.63;90.18;99475.72;5033363;28;20326;-67
2020/12/17 02:01:11;;;;;;;6.75;6.05;;;;;;;8.55;90.36;99473.44;5033044;28;20209;-67
2020/12/17 02:03:39;;;;;;;8.25;6.38;;;;;;;8.51;90.89;99477.22;5032730;28;20203;-67
2020/12/17 02:06:06;;;;;;;6.88;6.18;;;;;;;8.61;90.64;99481.16;5032953;28;20198;-67
2020/12/17 02:08:39;;;;;;;9.75;6.68;;;;;;;8.59;90.68;99484.88;5032747;28;20576;-67
2020/12/17 02:11:09;;;;;;;8.20;6.50;;;;;;;8.63;90.64;99475.72;5032660;28;20190;-66
2020/12/17 02:13:37;;;;;;;7.70;5.50;;;;;;;8.66;90.19;99480.91;5032807;28;20301;-67
2020/12/17 02:16:04;;;;;;;7.30;6.57;;;;;;;8.68;90.05;99487.06;5032138;28;20206;-68
2020/12/17 02:18:31;;;;;;;7.63;6.32;;;;;;;8.54;90.44;99475.22;5032177;28;20202;-68
2020/12/17 02:20:58;;;;;;;6.75;5.38;;;;;;;8.50;90.98;99472.78;5032630;28;20613;-68
2020/12/17 02:23:25;;;;;;;8.85;5.43;;;;;;;8.62;90.52;99476.69;5032645;28;20192;-67
2020/12/17 02:25:52;;;;;;;6.97;5.45;;;;;;;8.56;90.61;99472.47;5031437;28;20206;-67
2020/12/17 02:28:19;;;;;;;7.43;5.78;;;;;;;8.58;90.60;99472.41;5032488;28;20207;-67
2020/12/17 02:30:45;;;;;;;5.95;5.32;;;;;;;8.66;90.12;99470.19;5031762;28;20209;-67
2020/12/17 02:33:12;;;;;;;7.05;6.15;;;;;;;8.53;90.57;99468.16;5032439;28;20229;-67
2020/12/17 02:35:39;;;;;;;6.22;5.50;;;;;;;8.49;90.84;99463.88;5032299;28;20237;-66
2020/12/17 02:38:05;;;;;;;6.80;5.70;;;;;;;8.44;91.21;99468.63;5031998;28;20205;-67
2020/12/17 02:40:32;;;;;;;6.78;5.70;;;;;;;8.41;91.50;99463.44;5032140;28;20253;-67
2020/12/17 02:42:59;;;;;;;8.68;5.75;;;;;;;8.49;90.81;99466.56;5032481;28;20201;-68
2020/12/17 02:45:25;;;;;;;6.82;5.20;;;;;;;8.47;91.13;99460.41;5031748;28;20234;-67
2020/12/17 02:47:51;;;;;;;7.10;5.45;;;;;;;8.50;90.96;99462.94;5031950;28;20636;-67
2020/12/17 02:50:18;;;;;;;5.90;5.13;;;;;;;8.48;91.36;99458.59;5032348;28;20194;-67
2020/12/17 02:52:44;;;;;;;10.00;7.40;;;;;;;8.67;90.55;99466.56;5032407;28;20289;-67
2020/12/17 02:55:11;;;;;;;7.88;5.97;;;;;;;8.64;90.11;99470.28;5032430;28;20997;-67
2020/12/17 02:57:37;;;;;;;7.97;5.60;;;;;;;8.63;89.86;99465.84;5031928;28;20204;-67
2020/12/17 03:00:06;;;;;;;7.22;5.82;;;;;;;8.61;90.27;99467.72;5031836;28;20335;-67
2020/12/17 03:02:33;;;;;;;7.68;6.10;;;;;;;8.58;90.08;99472.41;5032308;28;20624;-67
2020/12/17 03:04:59;;;;;;;7.30;5.75;;;;;;;8.42;90.71;99470.50;5032298;28;20225;-67
2020/12/17 03:07:25;;;;;;;6.13;5.47;;;;;;;8.45;91.46;99466.81;5031812;28;20301;-68
2020/12/17 03:09:51;;;;;;;6.40;5.45;;;;;;;8.40;91.51;99464.34;5032032;28;20658;-67
2020/12/17 03:12:17;;;;;;;5.93;5.32;;;;;;;8.77;89.92;99467.81;5031604;28;20732;-67
2020/12/17 03:14:43;;;;;;;8.35;6.90;;;;;;;8.50;90.45;99468.31;5031526;28;20192;-67
2020/12/17 03:17:10;;;;;;;8.13;5.47;;;;;;;8.52;90.52;99471.78;5032019;28;20205;-67
2020/12/17 03:19:36;;;;;;;5.60;4.95;;;;;;;8.44;91.01;99476.66;5031473;28;20273;-67
2020/12/17 03:22:03;;;;;;;7.97;5.15;;;;;;;8.46;91.46;99469.41;5031835;28;20224;-67
2020/12/17 03:24:29;;;;;;;6.82;4.68;;;;;;;8.57;90.61;99463.50;5031878;28;20375;-67
2020/12/17 03:26:55;;;;;;;7.20;5.05;;;;;;;8.54;90.48;99469.88;5030716;28;20236;-67
2020/12/17 03:29:21;;;;;;;7.13;5.68;;;;;;;8.52;91.00;99477.16;5031300;28;20221;-68
2020/12/17 03:31:47;;;;;;;8.27;5.63;;;;;;;8.53;90.20;99478.03;5031552;28;20277;-67
2020/12/17 03:34:14;;;;;;;8.70;5.40;;;;;;;8.44;90.90;99476.66;5031594;28;20220;-67
2020/12/17 03:36:40;;;;;;;5.80;5.20;;;;;;;8.55;91.03;99484.19;5031721;28;20186;-67
2020/12/17 03:39:06;;;;;;;5.60;5.00;;;;;;;8.76;90.50;99483.03;5034724;28;20326;-67
2020/12/17 03:41:33;;;;;;;5.93;5.32;;;;;;;8.60;90.33;99483.94;5035512;28;20285;-67
2020/12/17 03:43:59;;;;;;;7.25;5.65;;;;;;;8.52;90.84;99492.38;5035439;28;20268;-67
2020/12/17 03:46:25;;;;;;;6.40;4.80;;;;;;;8.43;91.66;99492.84;5035064;28;20228;-67
2020/12/17 03:48:51;;;;;;;5.90;5.30;;;;;;;8.35;92.06;99493.22;5034755;28;20257;-67
2020/12/17 03:51:18;;;;;;;6.43;5.68;;;;;;;8.39;91.93;99500.16;5035442;28;20257;-67
2020/12/17 03:53:45;;;;;;;8.20;5.70;;;;;;;8.58;90.48;99493.88;5035348;28;20223;-67
2020/12/17 03:56:11;;;;;;;7.95;5.80;;;;;;;8.31;90.56;99497.84;5034450;28;20187;-67
2020/12/17 03:58:37;;;;;;;6.32;5.72;;;;;;;8.06;91.22;99497.34;5034934;28;20236;-67
2020/12/17 04:01:03;;;;;;;9.48;7.90;;;;;;;7.88;92.27;99491.06;5034639;28;20244;-67
2020/12/17 04:03:29;;;;;;;7.60;5.50;;;;;;;7.89;92.96;99509.78;5035257;28;20706;-67
2020/12/17 04:05:55;;;;;;;8.18;6.40;;;;;;;7.68;93.72;99494.72;5035108;28;20723;-66
2020/12/17 04:08:23;;;;;;;9.60;6.18;;;;;;;7.66;94.49;99507.31;5034404;28;20229;-67
2020/12/17 04:10:49;;;;;;;7.90;6.47;;;;;;;7.55;94.87;99505.13;5034566;28;20285;-67
2020/12/17 04:13:15;;;;;;;7.60;6.60;;;;;;;7.52;95.29;99503.47;5034123;28;20281;-67
2020/12/17 04:15:41;;;;;;;9.50;6.45;;;;;;;7.56;95.08;99500.66;5034650;28;20285;-67
2020/12/17 04:18:07;;;;;;;6.85;6.13;;;;;;;7.46;95.79;99500.22;5034859;28;20189;-66
2020/12/17 04:20:34;;;;;;;7.15;5.90;;;;;;;7.42;96.35;99496.81;5034760;28;20296;-67
2020/12/17 04:23:00;;;;;;;8.18;6.43;;;;;;;7.42;96.32;99494.16;5034484;28;20210;-67
2020/12/17 04:25:27;;;;;;;10.20;6.68;;;;;;;7.43;96.26;99503.03;5034492;28;20277;-67
2020/12/17 04:27:53;;;;;;;8.45;5.88;;;;;;;7.53;96.39;99504.38;5034477;28;20202;-67
2020/12/17 04:30:19;;;;;;;8.52;6.50;;;;;;;7.51;96.08;99508.94;5034511;28;20209;-67
2020/12/17 04:32:45;;;;;;;7.93;6.28;;;;;;;7.54;96.48;99506.09;5034765;28;20237;-67
2020/12/17 04:35:11;;;;;;;9.68;6.53;;;;;;;7.56;95.77;99506.88;5034011;28;20202;-67
2020/12/17 04:37:38;;;;;;;7.25;5.45;;;;;;;7.49;96.32;99505.44;5034661;28;20190;-67
2020/12/17 04:40:04;;;;;;;7.13;6.30;;;;;;;7.88;95.28;99508.03;5034526;28;20680;-67
2020/12/17 04:42:31;;;;;;;7.78;5.72;;;;;;;7.48;95.71;99522.44;5034192;28;20237;-67
2020/12/17 04:45:00;;;;;;;8.20;6.13;;;;;;;7.46;96.97;99513.59;5034087;28;20273;-67
2020/12/17 04:47:30;;;;;;;8.80;6.20;;;;;;;7.38;97.78;99532.72;5033934;28;20193;-67
2020/12/17 04:50:04;;;;;;;6.93;5.50;;;;;;;7.53;97.55;99520.44;5033678;28;20226;-67
2020/12/17 04:52:31;;;;;;;7.38;6.65;;;;;;;7.83;96.08;99519.91;5034369;28;20262;-67
2020/12/17 04:54:58;;;;;;;8.20;6.03;;;;;;;7.79;95.39;99524.53;5033964;28;20240;-67
2020/12/17 04:57:27;;;;;;;6.47;5.75;;;;;;;7.94;93.93;99531.84;5033469;28;20277;-67
2020/12/17 04:59:55;;;;;;;8.95;6.25;;;;;;;8.04;94.47;99526.03;5033457;28;20222;-67
2020/12/17 05:02:23;;;;;;;7.30;6.10;;;;;;;8.09;94.27;99538.28;5033707;28;20197;-66
2020/12/17 05:04:50;;;;;;;9.88;5.53;;;;;;;8.10;94.03;99540.03;5033937;28;20657;-67
2020/12/17 05:07:18;;;;;;;7.03;5.78;;;;;;;7.96;94.55;99549.66;5033930;28;20235;-67
2020/12/17 05:09:46;;;;;;;7.20;5.53;;;;;;;8.24;95.38;99550.06;5033402;28;20313;-67
2020/12/17 05:12:13;;;;;;;7.70;6.50;;;;;;;8.23;95.06;99551.03;5033563;28;20198;-67
2020/12/17 05:14:40;;;;;;;8.57;6.53;;;;;;;8.22;94.71;99545.72;5033850;28;20669;-67
2020/12/17 05:17:07;;;;;;;10.60;6.65;;;;;;;8.22;94.44;99549.28;5033324;28;20198;-67
2020/12/17 05:19:34;;;;;;;8.50;5.45;;;;;;;8.45;94.58;99558.91;5033861;28;20209;-67
2020/12/17 05:22:02;;;;;;;8.63;5.47;;;;;;;8.44;95.45;99557.16;5033466;28;20255;-67
2020/12/17 05:24:29;;;;;;;11.05;7.05;;;;;;;8.47;95.53;99557.00;5033083;28;20186;-67
2020/12/17 05:26:56;;;;;;;8.43;6.65;;;;;;;8.50;95.94;99554.19;5033194;28;20194;-68
2020/12/17 05:29:23;;;;;;;9.13;6.15;;;;;;;8.74;94.54;99560.09;5032989;28;20293;-68
2020/12/17 05:31:50;;;;;;;9.07;5.90;;;;;;;8.65;94.63;99567.78;5032813;28;20620;-67
2020/12/17 05:34:17;;;;;;;6.20;5.60;;;;;;;8.58;94.97;99574.41;5035148;28;20650;-67
2020/12/17 05:36:45;;;;;;;9.68;6.13;;;;;;;8.72;93.49;99579.94;5032809;28;20274;-67
2020/12/17 05:39:13;;;;;;;12.15;7.70;;;;;;;8.69;93.71;99574.72;5032993;28;20186;-67
2020/12/17 05:41:40;;;;;;;8.27;5.70;;;;;;;8.71;93.18;99576.38;5033139;28;20285;-68
2020/12/17 05:44:14;;;;;;;7.53;6.20;;;;;;;8.72;92.35;99577.25;5032854;28;20190;-66
2020/12/17 05:46:41;;;;;;;7.95;5.75;;;;;;;8.74;92.44;99578.91;5033035;28;20238;-67
2020/12/17 05:49:13;;;;;;;9.27;6.45;;;;;;;8.88;91.73;99583.56;5033167;28;20328;-66
2020/12/17 05:51:40;;;;;;;7.38;5.88;;;;;;;8.79;92.54;99589.41;5032654;28;20251;-67
2020/12/17 05:54:09;;;;;;;8.43;5.72;;;;;;;8.85;92.36;99585.56;5032724;28;20182;-67
2020/12/17 05:56:36;;;;;;;6.63;5.97;;;;;;;8.80;93.09;99579.56;5033010;28;20206;-67
2020/12/17 05:59:05;;;;;;;9.13;5.40;;;;;;;8.79;93.70;99584.03;5031678;28;20226;-66
2020/12/17 06:01:32;;;;;;;9.07;5.50;;;;;;;8.85;93.79;99586.41;5029565;28;20190;-67
2020/12/17 06:03:59;;;;;;;8.88;5.75;;;;;;;8.85;93.28;99591.78;5031954;28;20637;-67
2020/12/17 06:06:25;;;;;;;7.65;6.15;;;;;;;8.97;93.57;99592.97;5031957;28;20269;-67
2020/12/17 06:08:53;;;;;;;11.32;5.80;;;;;;;9.18;91.37;99594.53;5032630;28;20627;-66
2020/12/17 06:11:22;;;;;;;9.23;5.38;;;;;;;9.15;91.54;99591.13;5032517;28;20237;-66
2020/12/17 06:13:53;;;;;;;8.20;5.75;;;;;;;9.19;91.54;99596.25;5031949;28;20305;-67
2020/12/17 06:16:23;;;;;;;7.20;5.70;;;;;;;9.19;91.05;99603.47;5031698;28;20194;-66
2020/12/17 06:18:55;;;;;;;8.40;5.85;;;;;;;9.15;91.16;99600.06;5048344;28;20226;-67
2020/12/17 06:21:23;;;;;;;11.43;7.68;;;;;;;9.24;91.31;99601.41;5048476;28;20193;-66
2020/12/17 06:23:54;;;;;;;5.97;5.40;;;;;;;9.35;90.77;99616.97;5032402;28;20192;-67
2020/12/17 06:26:23;;;;;;;12.45;6.72;;;;;;;9.39;90.23;99623.91;5031763;28;20212;-67
2020/12/17 06:28:51;;;;;;;9.63;6.10;;;;;;;9.48;89.79;99622.56;5037376;28;20217;-67
2020/12/17 06:31:19;;;;;;;7.88;5.93;;;;;;;9.54;89.38;99631.19;5031650;28;20195;-66
2020/12/17 06:33:46;;;;;;;9.25;6.00;;;;;;;9.52;89.18;99624.13;5032084;28;20187;-66
2020/12/17 06:36:30;;;;;;;11.32;6.47;;;;;;;9.67;88.95;99633.19;5031752;28;20367;-67
2020/12/17 06:38:57;;;;;;;9.27;6.72;;;;;;;9.71;88.06;99635.63;5031947;28;20309;-67
2020/12/17 06:41:30;;;;;;;6.95;6.25;;;;;;;9.69;88.29;99639.34;5031383;28;20649;-66
2020/12/17 06:43:56;;;;;;;10.05;6.80;;;;;;;9.81;87.61;99638.69;5031046;28;20242;-68
2020/12/17 06:46:31;;;;;;;7.43;6.50;;;;;;;9.85;87.55;99648.31;5031164;28;20234;-67
2020/12/17 06:48:58;;;;;;;12.02;6.90;;;;;;;9.83;87.83;99655.59;5031224;28;20226;-68
2020/12/17 06:51:33;;;;;;;7.97;5.47;;;;;;;9.96;87.22;99651.28;5031773;28;20241;-67
2020/12/17 06:54:00;;;;;;;10.02;6.32;;;;;;;9.96;87.14;99647.75;5031557;28;20191;-67
2020/12/17 06:56:27;;;;;;;12.32;6.20;;;;;;;10.08;86.38;99657.81;5031418;28;20212;-68
2020/12/17 06:59:23;;;;;;;13.48;6.53;;;;;;;10.06;85.81;99651.66;5030840;28;20223;-68
2020/12/17 07:01:49;;;;;;;13.85;11.55;;;;;;;9.93;87.08;99656.00;4970464;28;20261;-67
2020/12/17 07:04:41;;;;;;;8.27;6.00;;;;;;;9.88;87.72;99660.72;5016903;28;20219;-67
2020/12/17 07:07:13;;;;;;;9.73;6.35;;;;;;;10.02;87.23;99668.94;5031631;28;20705;-68
2020/12/17 07:09:39;;;;;;;11.70;6.82;;;;;;;9.98;87.47;99659.28;5031251;28;20239;-67
2020/12/17 07:12:07;;;;;;;9.38;6.75;;;;;;;9.97;87.57;99668.28;5033169;28;20608;-67
2020/12/17 07:14:35;;;;;;;9.35;7.43;;;;;;;9.97;87.86;99673.69;5035562;28;20234;-67
2020/12/17 07:17:04;;;;;;;10.65;7.07;;;;;;;10.05;87.46;99678.66;5035227;28;20193;-67
2020/12/17 07:19:31;;;;;;;11.13;6.72;;;;;;;10.13;87.04;99688.06;5035338;28;20215;-67
2020/12/17 07:22:03;;;;;;;9.05;6.70;;;;;;;10.15;86.92;99686.16;5035208;28;20299;-67
2020/12/17 07:24:31;;;;;;;10.80;6.13;;;;;;;10.35;85.71;99687.75;5035101;28;20216;-67
2020/12/17 07:27:04;;;;;;;8.07;6.90;;;;;;;10.44;85.71;99703.38;5035045;28;20342;-67
2020/12/17 07:29:43;;;;;;;7.22;6.50;;;;;;;10.44;86.00;99707.91;5034723;28;20696;-68
2020/12/17 07:32:29;;;;;;;10.20;5.97;;;;;;;10.52;86.13;99715.56;5034468;28;20208;-68
2020/12/17 07:34:57;;;;;;;9.25;5.85;;;;;;;10.46;86.38;99718.59;5015475;28;20213;-67
2020/12/17 07:37:41;;;;;;;9.13;6.18;;;;;;;10.39;86.71;99718.06;5025219;28;20624;-67
2020/12/17 07:40:34;;;;;;;8.32;6.30;;;;;;;10.47;86.98;99717.63;5015274;28;20667;-67
2020/12/17 07:43:09;;;;;;;10.05;6.65;;;;;;;10.55;85.71;99728.84;5005833;28;20202;-67
2020/12/17 07:45:53;;;;;;;11.35;6.95;;;;;;;10.50;86.35;99722.84;5015119;28;20201;-67
2020/12/17 07:48:40;;;;;;;9.30;6.60;;;;;;;10.44;86.32;99732.13;5025454;28;20208;-67
2020/12/17 07:51:23;;;;;;;9.18;6.28;;;;;;;10.41;87.36;99727.78;5035349;28;20255;-67
2020/12/17 07:53:51;;;;;;;12.57;7.90;;;;;;;10.32;88.29;99740.88;5035075;28;20196;-67
2020/12/17 07:56:33;;;;;;;12.80;7.70;;;;;;;10.25;88.63;99739.47;5034276;28;20197;-67
2020/12/17 07:59:04;;;;;;;10.30;7.55;;;;;;;10.31;88.61;99741.81;4973101;28;20231;-67
2020/12/17 08:01:32;;;;;;;7.80;6.30;;;;;;;10.40;88.11;99752.97;4973793;28;20203;-68
2020/12/17 08:03:58;;;;;;;9.18;7.38;;;;;;;10.37;88.16;99749.56;4973484;28;20208;-68
2020/12/17 08:06:26;;;;;;;11.05;7.20;;;;;;;10.38;88.04;99760.25;4974031;28;20200;-67
2020/12/17 08:08:54;;;;;;;10.45;7.50;;;;;;;10.44;87.73;99773.38;4973591;28;20271;-67
2020/12/17 08:11:21;;;;;;;12.57;6.75;;;;;;;10.42;88.32;99769.03;4974213;28;20206;-68
2020/12/17 08:13:47;;;;;;;9.68;7.28;;;;;;;10.37;89.08;99771.97;4973433;28;20210;-67
2020/12/17 08:16:13;;;;;;;11.05;9.70;;;;;;;10.38;89.70;99776.41;4973733;28;20209;-67
2020/12/17 08:18:41;;;;;;;13.57;8.52;;;;;;;10.47;89.81;99787.63;4973439;28;20191;-67
2020/12/17 08:21:09;;;;;;;8.60;7.03;;;;;;;10.26;91.99;99777.03;4973027;28;20187;-67
2020/12/17 08:23:37;;;;;;;11.65;7.47;;;;;;;10.27;91.89;99781.47;4972478;28;20202;-67
2020/12/17 08:26:05;;;;;;;14.25;8.18;;;;;;;10.32;91.42;99776.75;4973483;28;20286;-68
2020/12/17 08:28:33;;;;;;;10.20;8.20;;;;;;;10.13;94.00;99794.78;4972898;28;20199;-67
2020/12/17 08:31:07;;;;;;;10.68;8.32;;;;;;;10.18;93.50;99798.97;4972768;28;20619;-68
2020/12/17 08:33:35;;;;;;;12.55;9.73;;;;;;;10.20;93.94;99804.28;4973364;28;20634;-68
2020/12/17 08:36:06;;;;;;;12.98;8.00;;;;;;;10.21;93.59;99803.31;5002194;28;20202;-68
2020/12/17 08:38:34;;;;;;;12.10;8.80;;;;;;;10.16;94.48;99803.56;5034267;28;20249;-67
2020/12/17 08:41:02;;;;;;;12.85;8.68;;;;;;;10.21;94.27;99808.72;5034363;28;20267;-68
2020/12/17 08:43:33;;;;;;;12.02;8.40;;;;;;;10.48;92.54;99802.84;5034381;28;20642;-67
2020/12/17 08:46:00;;;;;;;12.05;8.68;;;;;;;10.41;93.43;99810.38;5034087;28;20193;-67
2020/12/17 08:48:31;;;;;;;10.57;9.40;;;;;;;10.41;93.02;99821.13;5033627;28;20243;-68
2020/12/17 08:50:58;;;;;;;14.77;10.57;;;;;;;10.35;93.59;99824.16;5033776;28;20192;-68
2020/12/17 08:53:27;;;;;;;11.88;9.45;;;;;;;10.44;93.04;99826.34;5033590;28;20294;-68
2020/12/17 08:56:01;;;;;;;16.52;7.88;;;;;;;10.41;93.77;99829.22;5033603;28;20698;-69
2020/12/17 08:58:28;;;;;;;13.68;7.75;;;;;;;10.59;91.96;99830.91;5034010;28;20283;-68
2020/12/17 09:00:54;;;;;;;10.15;8.13;;;;;;;10.59;92.61;99835.44;5033661;28;20635;-68
2020/12/17 09:03:22;;;;;;;11.43;8.80;;;;;;;10.53;93.28;99830.38;5033910;28;20280;-67
2020/12/17 09:06:01;;;;;;;10.75;8.13;;;;;;;10.50;93.12;99831.41;5033890;28;20282;-68
2020/12/17 09:08:28;;;;;;;8.90;6.18;;;;;;;10.77;90.79;99837.09;5032799;28;20200;-66
2020/12/17 09:10:54;;;;;;;12.10;8.23;;;;;;;10.76;91.48;99842.56;5033498;28;20288;-68
2020/12/17 09:13:22;;;;;;;18.38;8.80;;;;;;;10.71;91.80;99850.91;5033384;28;20292;-67
2020/12/17 09:15:58;;;;;;;12.15;7.15;;;;;;;10.76;91.11;99856.03;5033085;28;20263;-68
2020/12/17 09:18:24;;;;;;;11.23;6.78;;;;;;;10.89;90.57;99864.31;5033620;28;20615;-68
2020/12/17 09:21:05;;;;;;;9.98;6.50;;;;;;;11.02;89.57;99866.25;5033450;28;20655;-68
2020/12/17 09:23:32;;;;;;;8.15;5.90;;;;;;;11.22;87.91;99877.75;5032935;28;20230;-68
2020/12/17 09:26:13;;;;;;;9.48;6.03;;;;;;;11.08;88.81;99881.22;5032802;28;20214;-68
2020/12/17 09:28:51;;;;;;;7.43;5.90;;;;;;;11.10;88.48;99884.66;5032424;28;20229;-68
2020/12/17 09:31:19;;;;;;;6.30;5.25;;;;;;;11.15;87.82;99881.75;5032489;28;20651;-67
2020/12/17 09:33:45;;;;;;;9.00;6.10;;;;;;;11.06;88.89;99881.28;5033467;28;20219;-68
2020/12/17 09:36:14;;;;;;;8.60;6.25;;;;;;;11.16;88.75;99881.63;5031701;28;20272;-68
2020/12/17 09:38:41;;;;;;;8.45;5.60;;;;;;;11.09;88.07;99882.94;5019252;28;20194;-68
2020/12/17 09:41:07;;;;;;;6.00;4.80;;;;;;;11.20;87.38;99885.91;5032583;28;20297;-69
2020/12/17 09:43:34;;;;;;;6.47;5.20;;;;;;;11.19;87.64;99894.06;5019049;28;20292;-69
2020/12/17 09:46:00;;;;;;;7.05;6.00;;;;;;;11.11;88.83;99899.03;5042378;28;20224;-69
2020/12/17 09:48:28;;;;;;;8.35;5.53;;;;;;;11.29;86.87;99908.78;5052876;28;20188;-69
2020/12/17 09:50:55;;;;;;;6.40;5.13;;;;;;;11.34;86.92;99904.00;5035407;28;20288;-68
2020/12/17 09:53:22;;;;;;;7.22;5.95;;;;;;;11.30;87.54;99901.56;5032917;28;20189;-68
2020/12/17 09:55:49;;;;;;;6.60;5.00;;;;;;;11.52;86.42;99909.31;5032690;28;20197;-69
2020/12/17 09:58:15;;;;;;;12.15;9.73;;;;;;;11.61;85.11;99911.47;5032203;28;20622;-69
2020/12/17 10:00:41;;;;;;;7.10;4.70;;;;;;;11.54;84.83;99910.97;5032028;28;20199;-68
2020/12/17 10:03:07;;;;;;;7.03;4.80;;;;;;;11.59;84.91;99921.47;5031815;28;20276;-67
2020/12/17 10:05:33;;;;;;;4.75;4.35;;;;;;;11.57;85.20;99924.25;5032401;28;20258;-68
2020/12/17 10:08:00;;;;;;;5.95;4.40;;;;;;;11.33;85.89;99923.84;5032571;28;20273;-67
2020/12/17 10:10:26;;;;;;;6.88;5.28;;;;;;;11.23;87.19;99928.00;5032542;28;20212;-67
2020/12/17 10:12:53;;;;;;;14.93;7.03;;;;;;;11.25;87.17;99929.63;5032097;28;20201;-67
2020/12/17 10:15:19;;;;;;;8.07;5.70;;;;;;;11.25;86.72;99926.09;5032346;28;20209;-68
2020/12/17 10:17:45;;;;;;;6.30;4.93;;;;;;;11.14;87.24;99928.50;5032425;28;20256;-68
2020/12/17 10:20:12;;;;;;;6.15;5.25;;;;;;;11.09;87.62;99935.97;5032214;28;20281;-68
2020/12/17 10:22:38;;;;;;;6.50;5.25;;;;;;;11.30;86.00;99940.16;5032122;28;20212;-68
2020/12/17 10:25:05;;;;;;;8.52;6.50;;;;;;;11.30;86.09;99933.91;5032063;28;20259;-67
2020/12/17 10:27:31;;;;;;;5.38;4.85;;;;;;;11.19;86.88;99938.09;5031930;28;20666;-67
2020/12/17 10:29:58;;;;;;;8.82;5.50;;;;;;;11.22;87.23;99948.69;5031745;28;20317;-68
2020/12/17 10:32:24;;;;;;;5.88;4.82;;;;;;;11.29;85.94;99941.13;5032221;28;20615;-67
2020/12/17 10:34:50;;;;;;;6.78;5.20;;;;;;;11.18;85.74;99944.41;5031314;28;20750;-67
2020/12/17 10:37:16;;;;;;;9.07;4.80;;;;;;;11.21;85.79;99943.38;5040199;28;20208;-68
2020/12/17 10:39:44;;;;;;;5.85;4.97;;;;;;;11.36;85.44;99939.84;5032597;28;20236;-68
2020/12/17 10:42:10;;;;;;;5.28;4.57;;;;;;;11.31;85.41;99947.31;5031790;28;20632;-68
2020/12/17 10:44:37;;;;;;;8.02;4.80;;;;;;;11.38;84.91;99947.84;5031797;28;20684;-67
2020/12/17 10:47:04;;;;;;;4.85;4.35;;;;;;;11.42;84.54;99944.88;5031302;28;20212;-68
2020/12/17 10:49:30;;;;;;;8.07;4.10;;;;;;;11.39;84.10;99947.75;5031818;28;20232;-67
2020/12/17 10:51:56;;;;;;;6.40;5.28;;;;;;;11.49;84.43;99950.81;5031956;28;20292;-68
2020/12/17 10:54:23;;;;;;;5.10;4.18;;;;;;;11.58;84.32;99954.81;5031505;28;20613;-68
2020/12/17 10:56:49;;;;;;;9.18;5.60;;;;;;;11.44;84.82;99961.84;5031735;28;20209;-68
2020/12/17 10:59:15;;;;;;;6.95;4.63;;;;;;;11.48;84.04;99968.78;5031420;28;20309;-67
2020/12/17 11:01:42;;;;;;;4.70;4.30;;;;;;;11.52;83.58;99955.16;5031585;28;20304;-68
2020/12/17 11:04:09;;;;;;;5.65;3.55;;;;;;;11.58;82.92;99946.72;5030894;28;20189;-68
2020/12/17 11:06:35;;;;;;;6.25;4.35;;;;;;;11.55;84.13;99953.13;5031612;28;20206;-68
2020/12/17 11:09:02;;;;;;;4.40;4.00;;;;;;;11.69;82.23;99955.06;5031893;28;20980;-67
2020/12/17 11:11:28;;;;;;;6.70;4.57;;;;;;;11.68;82.35;99945.22;5031622;28;20313;-67
2020/12/17 11:13:54;;;;;;;6.82;5.05;;;;;;;11.79;81.84;99956.28;5031365;28;20277;-69
2020/12/17 11:16:21;;;;;;;5.07;3.75;;;;;;;12.00;80.06;99951.50;5031420;28;20209;-69
2020/12/17 11:18:47;;;;;;;4.82;4.32;;;;;;;11.96;80.39;99954.44;5031388;28;20197;-68
2020/12/17 11:21:20;;;;;;;5.50;4.28;;;;;;;11.98;80.86;99949.84;5031666;28;20230;-67
2020/12/17 11:23:46;;;;;;;5.00;4.22;;;;;;;12.14;80.26;99947.09;5031784;28;20214;-68
2020/12/17 11:26:12;;;;;;;7.10;4.28;;;;;;;12.27;78.56;99938.19;5031276;28;20202;-68
2020/12/17 11:28:38;;;;;;;8.95;4.47;;;;;;;12.18;79.52;99943.28;5032152;28;20277;-68
2020/12/17 11:31:06;;;;;;;5.47;4.03;;;;;;;12.26;78.92;99944.56;5031272;28;20228;-68
2020/12/17 11:33:32;;;;;;;6.53;4.40;;;;;;;12.22;78.45;99945.69;5031593;28;20268;-68
2020/12/17 11:36:00;;;;;;;5.68;4.78;;;;;;;12.31;79.08;99947.00;5031693;28;20202;-67
2020/12/17 11:38:27;;;;;;;6.93;3.88;;;;;;;12.34;78.07;99952.19;5031698;28;20251;-67
2020/12/17 11:40:54;;;;;;;5.07;3.42;;;;;;;12.46;76.26;99946.06;5031351;28;20198;-67